메인 페이지
METAR-TAF:

METAR-TAF

공항 :

뉴올리언스, 루이지애나, 미국

위도: 29-59-34N, 경도: 090-15-03W, 고도: 1m

현재 날씨관측

예보는 22분 전, 16:53시(UTC)에 발표되었습니다.
무풍
온도 16°C
습도 82%
기압 1013 hPa
시정: 9.7km
고도 600ft 상공 구름 많음
연무

METAR: KMSY 141653Z 00000KT 6SM HZ BKN006 16/13 A2992 RMK AO2 SLP135 VIS E-S 1 1/4 T01560128

시각: 11:15 (17:15 UTC)

예보

예보는 5 시간 42분 전, 11:33시(UTC)에 발표되었습니다.
예보 대상 시간: 14일 12시부터 15일 18시까지 (UTC)
kt
시정: 0.4km
고도 300ft 상공
안개
14일 1600시부터 (UTC)
남서4kt
시정: 10km
고도 1000ft 상공 구름 많음
14일 1800시부터 (UTC)
북북서6kt
시정: 10km
고도 20000ft 상공 구름 많음
15일 0300시부터 (UTC)
여러 방향의 바람 3kt
시정: 0.4km
고도 25000ft 상공 구름 많음
안개
15일 1500시부터 (UTC)
남남동8kt
시정: 10km
고도 25000ft 상공 구름 보통

TAF: KMSY 141133Z 1412/1518 00000KT 1/4SM FG VV003 FM141600 22004KT P6SM BKN010 FM141800 33006KT P6SM BKN200 FM150300 VRB03KT 1/4SM FG BKN250 FM151500 16008KT P6SM SCT250

4,000개 이상의 공항 관측 자료 및 예보 (METAR 및 TAF 보고).

지도상에서 검색 가능한 기상관측소가 노란 점과 빨간 점으로 표시되어 있습니다.

기상관측소 명을 보려면 표시 위로 마우스를 이동하세요.

날씨 관측과 예보를 보려면 클릭하세요.

지도 변경 : 확대하려면 엑스 표시가 있는 녹색 버튼, 축소하려면 빼기 표시가 있는 녹색 버튼, 다음 페이지의 지도를 보려면 녹색 화살표를 클릭하세요.


METAR-TAF: